Amelia, Nebraska
Current Conditions -  °F | °C
As of 4:55 PM on Saturday 25 Oct 2014 (Local Time) from KONL Reporting Station
Clear Clear  
Wind Chill: 69°   Ceiling: Unl
Heat Index: 69°   Visibility: 10mi
Dew Point: 36°   Wind: 8mph
Humidity: 29%   Direction: 90°E
Pressure: 30.07"   Gusts: NA
Location:  42.24°N, 98.91°W
Report Text: KONL 252155Z AUTO 09007KT 10SM CLR 21/02 A3007 RMK AO2 T02070021
Loading
Personal Weather Stations






























Interactive Weather Map
Tropical Storm Tracking
New forecast layout! Learn more

10-Day Weather Forecast

Advertisements
Track Severe Weather on mobile